createdAt,value
2023-05-01T00:00:05.345Z,12.27
2023-05-01T00:01:03.787Z,12.25
2023-05-01T00:02:03.804Z,12.20
2023-05-01T00:03:03.986Z,12.20
2023-05-01T00:04:03.938Z,12.19
2023-05-01T00:05:03.907Z,12.18
2023-05-01T00:06:03.947Z,12.21
2023-05-01T00:07:03.912Z,12.23
2023-05-01T00:08:04.007Z,12.23
2023-05-01T00:09:03.991Z,12.13
2023-05-01T00:10:04.028Z,12.07
2023-05-01T00:11:04.039Z,12.11
2023-05-01T00:12:04.049Z,12.08
2023-05-01T00:13:04.062Z,12.14
2023-05-01T00:14:04.084Z,12.16
2023-05-01T00:15:04.137Z,12.20
2023-05-01T00:16:04.205Z,12.24
2023-05-01T00:17:04.187Z,12.17
2023-05-01T00:18:04.350Z,12.22
2023-05-01T00:19:04.265Z,12.24
2023-05-01T00:20:04.247Z,12.23
2023-05-01T00:21:04.286Z,12.25
2023-05-01T00:22:04.279Z,12.28
2023-05-01T00:23:04.335Z,12.33
2023-05-01T00:24:04.327Z,12.41
2023-05-01T00:25:04.368Z,12.45
2023-05-01T00:26:04.367Z,12.43
2023-05-01T00:27:04.370Z,12.43
2023-05-01T00:28:04.396Z,12.43
2023-05-01T00:29:04.438Z,12.41
2023-05-01T00:30:04.458Z,12.44
2023-05-01T00:31:04.494Z,12.36
2023-05-01T00:32:04.647Z,12.39
2023-05-01T00:33:04.606Z,12.36
2023-05-01T00:34:04.587Z,12.41
2023-05-01T00:35:04.638Z,12.45
2023-05-01T00:36:04.687Z,12.44
2023-05-01T00:37:04.732Z,12.35
2023-05-01T00:38:04.720Z,12.35
2023-05-01T00:39:04.808Z,12.36
2023-05-01T00:40:04.845Z,12.27
2023-05-01T00:41:04.813Z,12.20
2023-05-01T00:42:04.843Z,12.14
2023-05-01T00:43:04.858Z,12.05
2023-05-01T00:44:04.883Z,12.02
2023-05-01T00:45:04.914Z,12.00
2023-05-01T00:46:05.007Z,11.87
2023-05-01T00:47:05.055Z,11.84
2023-05-01T00:48:05.148Z,11.78
2023-05-01T00:49:05.337Z,11.75
2023-05-01T00:50:05.079Z,11.75
2023-05-01T00:51:05.130Z,11.80
2023-05-01T00:52:05.146Z,11.86
2023-05-01T00:53:05.236Z,11.90
2023-05-01T00:54:05.259Z,11.91
2023-05-01T00:55:05.252Z,11.93
2023-05-01T00:56:05.398Z,11.96
2023-05-01T00:57:05.270Z,12.00
2023-05-01T00:58:05.322Z,12.01
2023-05-01T00:59:05.366Z,12.01
2023-05-01T01:00:05.410Z,12.01
2023-05-01T01:01:05.513Z,12.05
2023-05-01T01:02:05.514Z,12.05
2023-05-01T01:03:05.496Z,12.01
2023-05-01T01:04:05.562Z,11.95
2023-05-01T01:05:05.581Z,11.85
2023-05-01T01:06:05.707Z,11.80
2023-05-01T01:07:05.647Z,11.79
2023-05-01T01:08:05.700Z,11.86
2023-05-01T01:09:05.705Z,11.92
2023-05-01T01:10:05.746Z,11.92
2023-05-01T01:11:05.783Z,11.92
2023-05-01T01:12:05.836Z,11.87
2023-05-01T01:13:05.894Z,11.86
2023-05-01T01:14:05.893Z,11.88
2023-05-01T01:15:05.880Z,11.95
2023-05-01T01:16:05.889Z,11.97
2023-05-01T01:17:06.057Z,12.00
2023-05-01T01:18:06.039Z,12.00
2023-05-01T01:19:05.970Z,11.99
2023-05-01T01:20:05.985Z,12.03
2023-05-01T01:21:05.974Z,12.02
2023-05-01T01:22:05.990Z,12.03
2023-05-01T01:23:06.046Z,12.05
2023-05-01T01:24:06.049Z,12.01
2023-05-01T01:25:06.043Z,11.96
2023-05-01T01:26:06.054Z,11.94
2023-05-01T01:27:06.056Z,11.89
2023-05-01T01:28:06.158Z,11.81
2023-05-01T01:29:06.189Z,11.75
2023-05-01T01:30:06.233Z,11.71
2023-05-01T01:31:06.366Z,11.69
2023-05-01T01:32:06.303Z,11.63
2023-05-01T01:33:06.364Z,11.60
2023-05-01T01:34:06.383Z,11.62
2023-05-01T01:35:06.399Z,11.58
2023-05-01T01:36:06.461Z,11.63
2023-05-01T01:37:06.483Z,11.69
2023-05-01T01:38:06.489Z,11.72
2023-05-01T01:39:06.538Z,11.72
2023-05-01T01:40:06.621Z,11.64
2023-05-01T01:41:06.590Z,11.64
2023-05-01T01:42:06.659Z,11.59
2023-05-01T01:43:06.691Z,11.57
2023-05-01T01:44:06.703Z,11.58
2023-05-01T01:45:06.744Z,11.60
2023-05-01T01:46:06.835Z,11.61
2023-05-01T01:47:06.817Z,11.62
2023-05-01T01:48:06.836Z,11.61
2023-05-01T01:49:06.898Z,11.55
2023-05-01T01:50:06.950Z,11.50
2023-05-01T01:51:06.988Z,11.46
2023-05-01T01:52:07.014Z,11.50
2023-05-01T01:53:07.058Z,11.53
2023-05-01T01:54:07.078Z,11.48
2023-05-01T01:55:07.083Z,11.42
2023-05-01T01:56:07.083Z,11.36
2023-05-01T01:57:07.273Z,11.37
2023-05-01T01:58:07.158Z,11.41
2023-05-01T01:59:07.223Z,11.35
2023-05-01T02:00:07.199Z,11.43
2023-05-01T02:01:07.207Z,11.55
2023-05-01T02:02:07.272Z,11.54
2023-05-01T02:03:07.321Z,11.58
2023-05-01T02:04:07.433Z,11.60
2023-05-01T02:05:07.361Z,11.63
2023-05-01T02:06:07.483Z,11.64
2023-05-01T02:07:07.435Z,11.66
2023-05-01T02:08:07.451Z,11.72
2023-05-01T02:09:07.532Z,11.76
2023-05-01T02:10:07.515Z,11.81
2023-05-01T02:11:07.506Z,11.86
2023-05-01T02:12:07.523Z,11.92
2023-05-01T02:13:07.559Z,11.98
2023-05-01T02:14:07.593Z,12.03
2023-05-01T02:15:07.591Z,11.96
2023-05-01T02:16:07.740Z,11.95
2023-05-01T02:17:07.737Z,11.95
2023-05-01T02:18:07.686Z,12.03
2023-05-01T02:19:07.722Z,12.09
2023-05-01T02:20:07.700Z,12.08
2023-05-01T02:21:07.704Z,12.08
2023-05-01T02:22:07.715Z,12.05
2023-05-01T02:23:07.720Z,12.05
2023-05-01T02:24:07.711Z,12.07
2023-05-01T02:25:07.717Z,12.07
2023-05-01T02:26:07.750Z,12.03
2023-05-01T02:27:07.764Z,11.95
2023-05-01T02:28:07.847Z,11.91
2023-05-01T02:29:07.893Z,11.92
2023-05-01T02:30:07.928Z,11.91
2023-05-01T02:31:07.973Z,11.97
2023-05-01T02:32:07.984Z,12.02
2023-05-01T02:33:07.978Z,12.02
2023-05-01T02:34:08.003Z,12.06
2023-05-01T02:35:08.049Z,12.09
2023-05-01T02:36:08.042Z,12.05
2023-05-01T02:37:08.069Z,12.00
2023-05-01T02:38:08.045Z,12.00
2023-05-01T02:39:08.085Z,12.00
2023-05-01T02:40:08.148Z,12.03
2023-05-01T02:41:08.141Z,12.08
2023-05-01T02:42:08.129Z,12.15
2023-05-01T02:43:08.160Z,12.17
2023-05-01T02:44:08.264Z,12.18
2023-05-01T02:45:08.339Z,12.18
2023-05-01T02:46:08.401Z,12.15
2023-05-01T02:47:08.431Z,12.21
2023-05-01T02:48:08.501Z,12.23
2023-05-01T02:49:08.432Z,12.03
2023-05-01T02:50:08.428Z,11.81
2023-05-01T02:51:08.446Z,11.75
2023-05-01T02:52:08.502Z,11.84
2023-05-01T02:53:08.497Z,11.94
2023-05-01T02:54:08.553Z,12.01
2023-05-01T02:55:08.577Z,12.09
2023-05-01T02:56:08.629Z,12.17
2023-05-01T02:57:08.658Z,12.20
2023-05-01T02:58:08.644Z,12.16
2023-05-01T02:59:08.676Z,12.15
2023-05-01T03:00:08.695Z,12.16
2023-05-01T03:01:08.711Z,12.17
2023-05-01T03:02:08.709Z,12.21
2023-05-01T03:03:08.828Z,12.26
2023-05-01T03:04:08.862Z,12.32
2023-05-01T03:05:08.884Z,12.25
2023-05-01T03:06:08.974Z,12.01
2023-05-01T03:07:08.888Z,11.75
2023-05-01T03:08:08.937Z,11.67
2023-05-01T03:09:08.962Z,11.79
2023-05-01T03:10:08.987Z,11.94
2023-05-01T03:11:09.024Z,12.05
2023-05-01T03:12:09.078Z,12.14
2023-05-01T03:13:09.341Z,12.21
2023-05-01T03:14:09.123Z,12.28
2023-05-01T03:15:09.267Z,12.33
2023-05-01T03:16:09.220Z,12.34
2023-05-01T03:17:09.192Z,12.32
2023-05-01T03:18:09.345Z,12.25
2023-05-01T03:19:09.276Z,12.26
2023-05-01T03:20:09.283Z,12.22
2023-05-01T03:21:09.492Z,12.20
2023-05-01T03:22:09.401Z,12.17
2023-05-01T03:23:09.401Z,12.22
2023-05-01T03:24:09.463Z,12.26
2023-05-01T03:25:09.464Z,12.28
2023-05-01T03:26:09.499Z,12.29
2023-05-01T03:27:09.653Z,12.00
2023-05-01T03:28:09.580Z,11.67
2023-05-01T03:29:09.597Z,11.69
2023-05-01T03:30:09.612Z,11.81
2023-05-01T03:31:09.679Z,11.92
2023-05-01T03:32:09.725Z,12.03
2023-05-01T03:33:09.762Z,12.10
2023-05-01T03:34:09.781Z,12.13
2023-05-01T03:35:09.825Z,12.23
2023-05-01T03:36:09.783Z,12.32
2023-05-01T03:37:09.841Z,12.39
2023-05-01T03:38:09.882Z,12.43
2023-05-01T03:39:09.908Z,12.46
2023-05-01T03:40:09.985Z,12.46
2023-05-01T03:41:10.087Z,12.51
2023-05-01T03:42:10.075Z,12.52
2023-05-01T03:43:10.123Z,12.43
2023-05-01T03:44:10.157Z,12.33
2023-05-01T03:45:10.193Z,12.11
2023-05-01T03:46:10.220Z,12.05
2023-05-01T03:47:10.286Z,12.06
2023-05-01T03:48:10.751Z,12.15
2023-05-01T03:49:10.380Z,12.21
2023-05-01T03:50:10.435Z,12.25
2023-05-01T03:51:10.459Z,12.34
2023-05-01T03:52:10.503Z,12.43
2023-05-01T03:53:10.729Z,12.49
2023-05-01T03:54:10.592Z,12.46
2023-05-01T03:55:10.628Z,12.47
2023-05-01T03:56:10.631Z,12.43
2023-05-01T03:57:10.640Z,12.42
2023-05-01T03:58:10.718Z,12.47
2023-05-01T03:59:10.702Z,12.49
2023-05-01T04:00:10.762Z,12.42
2023-05-01T04:01:10.765Z,12.32
2023-05-01T04:02:10.836Z,12.24
2023-05-01T04:03:10.845Z,12.19
2023-05-01T04:04:11.007Z,12.14
2023-05-01T04:05:10.841Z,12.20
2023-05-01T04:06:10.936Z,12.25
2023-05-01T04:07:10.869Z,12.26
2023-05-01T04:08:10.930Z,12.27
2023-05-01T04:09:10.908Z,12.23
2023-05-01T04:10:10.955Z,12.14
2023-05-01T04:11:10.985Z,12.05
2023-05-01T04:12:11.042Z,12.07
2023-05-01T04:13:11.086Z,12.11
2023-05-01T04:14:11.078Z,12.15
2023-05-01T04:15:11.468Z,12.19
2023-05-01T04:16:11.237Z,12.23
2023-05-01T04:17:11.203Z,12.31
2023-05-01T04:18:11.287Z,12.36
2023-05-01T04:19:11.235Z,12.32
2023-05-01T04:20:11.281Z,12.23
2023-05-01T04:21:11.303Z,12.27
2023-05-01T04:22:11.311Z,12.26
2023-05-01T04:23:11.311Z,12.16
2023-05-01T04:24:11.351Z,12.17
2023-05-01T04:25:11.354Z,12.16
2023-05-01T04:26:11.480Z,12.17
2023-05-01T04:27:11.550Z,12.18
2023-05-01T04:28:11.571Z,12.20
2023-05-01T04:29:11.712Z,12.20
2023-05-01T04:30:11.608Z,12.13
2023-05-01T04:31:11.716Z,12.05
2023-05-01T04:32:11.671Z,12.03
2023-05-01T04:33:11.868Z,12.05
2023-05-01T04:34:11.677Z,12.04
2023-05-01T04:35:11.733Z,11.79
2023-05-01T04:36:11.735Z,11.81
2023-05-01T04:37:11.737Z,11.87
2023-05-01T04:38:11.762Z,11.91
2023-05-01T04:39:11.789Z,11.88
2023-05-01T04:40:11.979Z,11.93
2023-05-01T04:41:11.872Z,12.01
2023-05-01T04:42:11.838Z,12.07
2023-05-01T04:43:11.861Z,12.09
2023-05-01T04:44:11.868Z,12.04
2023-05-01T04:45:11.905Z,12.12
2023-05-01T04:46:11.979Z,12.17
2023-05-01T04:47:12.063Z,12.17
2023-05-01T04:48:12.123Z,12.18
2023-05-01T04:49:12.055Z,12.11
2023-05-01T04:50:12.103Z,12.10
2023-05-01T04:51:12.091Z,12.11
2023-05-01T04:52:12.125Z,12.11
2023-05-01T04:53:12.161Z,12.11
2023-05-01T04:54:12.181Z,12.17
2023-05-01T04:55:12.231Z,12.27
2023-05-01T04:56:12.222Z,12.35
2023-05-01T04:57:12.265Z,12.22
2023-05-01T04:58:12.268Z,12.10
2023-05-01T04:59:12.330Z,12.05
2023-05-01T05:00:12.370Z,12.11
2023-05-01T05:01:12.376Z,12.24
2023-05-01T05:02:12.481Z,12.37
2023-05-01T05:03:12.484Z,12.47
2023-05-01T05:04:12.602Z,12.45
2023-05-01T05:05:12.525Z,12.50
2023-05-01T05:06:12.550Z,12.56
2023-05-01T05:07:12.569Z,12.66
2023-05-01T05:08:12.613Z,12.76
2023-05-01T05:09:12.613Z,12.85
2023-05-01T05:10:12.652Z,12.84
2023-05-01T05:11:12.651Z,12.89
2023-05-01T05:13:12.716Z,12.83
2023-05-01T05:14:12.751Z,12.87
2023-05-01T05:15:12.760Z,12.91
2023-05-01T05:16:12.809Z,12.93
2023-05-01T05:17:12.813Z,12.93
2023-05-01T05:18:12.846Z,13.02
2023-05-01T05:19:12.889Z,13.09
2023-05-01T05:20:12.835Z,13.17
2023-05-01T05:21:12.936Z,13.23
2023-05-01T05:22:12.910Z,13.32
2023-05-01T05:23:12.909Z,13.38
2023-05-01T05:24:12.926Z,13.37
2023-05-01T05:25:12.930Z,13.40
2023-05-01T05:26:12.923Z,13.46
2023-05-01T05:27:12.956Z,13.50
2023-05-01T05:28:12.983Z,13.55
2023-05-01T05:29:13.020Z,13.59
2023-05-01T05:30:13.001Z,13.57
2023-05-01T05:31:13.013Z,13.45
2023-05-01T05:32:13.102Z,13.48
2023-05-01T05:33:13.138Z,13.51
2023-05-01T05:34:13.083Z,13.54
2023-05-01T05:35:13.139Z,13.57
2023-05-01T05:36:13.145Z,13.63
2023-05-01T05:37:13.143Z,13.49
2023-05-01T05:38:13.167Z,13.50
2023-05-01T05:39:13.186Z,13.53
2023-05-01T05:40:13.298Z,13.48
2023-05-01T05:41:13.211Z,13.36
2023-05-01T05:42:13.230Z,13.39
2023-05-01T05:43:13.294Z,13.49
2023-05-01T05:44:13.281Z,13.55
2023-05-01T05:45:13.292Z,13.58
2023-05-01T05:46:13.390Z,13.65
2023-05-01T05:47:13.337Z,13.69
2023-05-01T05:48:13.468Z,13.75
2023-05-01T05:49:13.492Z,13.79
2023-05-01T05:50:13.504Z,13.63
2023-05-01T05:51:13.504Z,13.63
2023-05-01T05:52:13.520Z,13.68
2023-05-01T05:53:13.558Z,13.70
2023-05-01T05:54:13.547Z,13.49
2023-05-01T05:55:13.580Z,13.54
2023-05-01T05:56:13.639Z,13.64
2023-05-01T05:57:13.659Z,13.66
2023-05-01T05:58:13.676Z,13.68
2023-05-01T05:59:14.844Z,13.64
2023-05-01T06:00:13.694Z,13.62
2023-05-01T06:01:13.688Z,13.73
2023-05-01T06:02:13.733Z,13.70
2023-05-01T06:03:13.762Z,13.71
2023-05-01T06:04:13.698Z,13.73
2023-05-01T06:05:13.740Z,13.78
2023-05-01T06:06:13.728Z,13.94
2023-05-01T06:07:13.624Z,14.05
2023-05-01T06:08:13.666Z,14.14
2023-05-01T06:09:13.657Z,14.18
2023-05-01T06:10:13.607Z,14.26
2023-05-01T06:11:13.653Z,14.33
2023-05-01T06:12:13.628Z,14.34
2023-05-01T06:13:14.751Z,14.34
2023-05-01T06:14:13.642Z,14.28
2023-05-01T06:15:13.613Z,14.35
2023-05-01T06:16:13.680Z,14.42
2023-05-01T06:17:13.606Z,14.47
2023-05-01T06:18:13.710Z,14.52
2023-05-01T06:19:13.569Z,14.49
2023-05-01T06:20:13.576Z,14.55
2023-05-01T06:21:13.578Z,14.61
2023-05-01T06:22:13.589Z,14.68
2023-05-01T06:23:13.563Z,14.71
2023-05-01T06:24:13.526Z,14.78
2023-05-01T06:25:13.562Z,14.64
2023-05-01T06:26:13.514Z,14.68
2023-05-01T06:27:13.533Z,14.61
2023-05-01T06:28:13.478Z,14.60
2023-05-01T06:29:13.508Z,14.71
2023-05-01T06:30:13.516Z,14.76
2023-05-01T06:31:13.551Z,14.55
2023-05-01T06:32:13.482Z,14.28
2023-05-01T06:33:13.562Z,14.21
2023-05-01T06:34:13.473Z,14.26
2023-05-01T06:35:13.467Z,14.31
2023-05-01T06:36:13.437Z,14.42
2023-05-01T06:37:13.476Z,14.57
2023-05-01T06:38:13.447Z,14.67
2023-05-01T06:39:13.425Z,14.66
2023-05-01T06:40:13.440Z,14.80
2023-05-01T06:41:13.527Z,14.93
2023-05-01T06:42:13.471Z,15.02
2023-05-01T06:43:13.424Z,15.13
2023-05-01T06:44:13.410Z,15.16
2023-05-01T06:45:13.543Z,15.25
2023-05-01T06:46:13.550Z,15.28
2023-05-01T06:47:13.608Z,15.32
2023-05-01T06:48:13.565Z,15.40
2023-05-01T06:49:13.598Z,15.49
2023-05-01T06:50:13.651Z,15.56
2023-05-01T06:51:13.623Z,15.59
2023-05-01T06:52:13.631Z,15.62
2023-05-01T06:53:13.677Z,15.63
2023-05-01T06:54:13.717Z,15.63
2023-05-01T06:55:13.719Z,15.65
2023-05-01T06:56:13.784Z,15.52
2023-05-01T06:57:13.801Z,15.55
2023-05-01T06:58:23.647Z,15.63
2023-05-01T06:59:14.788Z,15.61
2023-05-01T07:00:13.783Z,15.65
2023-05-01T07:01:13.799Z,15.69
2023-05-01T07:02:13.843Z,15.73
2023-05-01T07:03:13.843Z,15.75
2023-05-01T07:04:13.747Z,15.79
2023-05-01T07:05:13.739Z,15.82
2023-05-01T07:06:13.807Z,15.79
2023-05-01T07:07:13.766Z,15.65
2023-05-01T07:08:13.732Z,15.64
2023-05-01T07:09:13.719Z,15.51
2023-05-01T07:10:13.746Z,15.44
2023-05-01T07:11:13.703Z,15.51
2023-05-01T07:12:13.727Z,15.63
2023-05-01T07:13:13.762Z,15.67
2023-05-01T07:14:13.773Z,15.59
2023-05-01T07:15:13.825Z,15.65
2023-05-01T07:16:13.857Z,15.62
2023-05-01T07:17:13.879Z,15.48
2023-05-01T07:18:13.944Z,15.38
2023-05-01T07:19:13.940Z,15.42
2023-05-01T07:20:13.977Z,15.55
2023-05-01T07:21:13.956Z,15.64
2023-05-01T07:22:14.019Z,15.66
2023-05-01T07:23:13.990Z,15.76
2023-05-01T07:24:14.022Z,15.84
2023-05-01T07:25:14.094Z,15.90
2023-05-01T07:26:14.096Z,15.82
2023-05-01T07:27:14.105Z,15.67
2023-05-01T07:28:14.110Z,15.65
2023-05-01T07:29:14.104Z,15.75
2023-05-01T07:30:14.133Z,15.86
2023-05-01T07:31:14.174Z,15.96
2023-05-01T07:32:14.373Z,15.98
2023-05-01T07:33:14.304Z,15.95
2023-05-01T07:34:14.240Z,16.01
2023-05-01T07:35:14.250Z,16.02
2023-05-01T07:36:14.695Z,15.99
2023-05-01T07:37:14.340Z,16.02
2023-05-01T07:38:14.344Z,16.09
2023-05-01T07:39:14.385Z,16.19
2023-05-01T07:40:14.398Z,16.21
2023-05-01T07:41:14.439Z,16.26
2023-05-01T07:42:14.448Z,16.25
2023-05-01T07:43:14.506Z,16.29
2023-05-01T07:44:14.517Z,16.29
2023-05-01T07:45:14.573Z,16.36
2023-05-01T07:46:14.648Z,16.37
2023-05-01T07:47:14.630Z,16.40
2023-05-01T07:48:14.729Z,16.46
2023-05-01T07:49:14.682Z,16.49
2023-05-01T07:50:14.752Z,16.34
2023-05-01T07:51:14.702Z,16.32
2023-05-01T07:52:14.767Z,16.28
2023-05-01T07:53:14.782Z,16.19
2023-05-01T07:54:14.795Z,16.08
2023-05-01T07:55:14.806Z,16.23
2023-05-01T07:56:14.841Z,16.36
2023-05-01T07:57:14.899Z,16.51
2023-05-01T07:58:14.904Z,16.66
2023-05-01T07:59:14.983Z,16.74
2023-05-01T08:00:14.993Z,16.85
2023-05-01T08:01:15.026Z,16.97
2023-05-01T08:02:15.052Z,16.98
2023-05-01T08:03:15.137Z,17.01
2023-05-01T08:04:15.176Z,17.04
2023-05-01T08:05:15.054Z,16.87
2023-05-01T08:06:15.136Z,16.95
2023-05-01T08:07:15.129Z,17.08
2023-05-01T08:08:15.124Z,17.21
2023-05-01T08:09:15.154Z,17.30
2023-05-01T08:10:15.184Z,17.33
2023-05-01T08:11:15.209Z,17.35
2023-05-01T08:12:15.258Z,17.40
2023-05-01T08:13:15.255Z,17.51
2023-05-01T08:14:15.289Z,17.62
2023-05-01T08:15:15.369Z,17.66
2023-05-01T08:16:15.376Z,17.42
2023-05-01T08:17:15.357Z,17.33
2023-05-01T08:18:15.373Z,17.12
2023-05-01T08:19:15.405Z,16.99
2023-05-01T08:20:15.480Z,16.93
2023-05-01T08:21:15.538Z,16.99
2023-05-01T08:22:15.578Z,16.99
2023-05-01T08:23:15.584Z,17.07
2023-05-01T08:24:15.596Z,17.13
2023-05-01T08:25:15.636Z,17.20
2023-05-01T08:26:15.633Z,17.41
2023-05-01T08:27:15.708Z,17.60
2023-05-01T08:28:15.712Z,17.58
2023-05-01T08:29:15.831Z,17.73
2023-05-01T08:30:15.804Z,17.87
2023-05-01T08:31:15.924Z,17.98
2023-05-01T08:32:15.876Z,18.06
2023-05-01T08:33:15.924Z,18.04
2023-05-01T08:34:15.951Z,17.83
2023-05-01T08:35:16.000Z,17.88
2023-05-01T08:36:16.066Z,18.05
2023-05-01T08:37:16.045Z,18.15
2023-05-01T08:38:16.088Z,18.29
2023-05-01T08:39:16.086Z,18.40
2023-05-01T08:40:16.118Z,18.32
2023-05-01T08:41:16.234Z,18.37
2023-05-01T08:42:16.149Z,18.49
2023-05-01T08:43:16.177Z,18.57
2023-05-01T08:44:16.226Z,18.58
2023-05-01T08:45:16.240Z,18.62
2023-05-01T08:46:16.273Z,18.64
2023-05-01T08:47:16.275Z,18.69
2023-05-01T08:48:16.292Z,18.71
2023-05-01T08:49:16.299Z,18.79
2023-05-01T08:50:16.284Z,18.76
2023-05-01T08:51:16.364Z,18.65
2023-05-01T08:52:16.369Z,18.56
2023-05-01T08:53:16.395Z,18.47
2023-05-01T08:54:16.425Z,18.49
2023-05-01T08:55:16.498Z,18.48
2023-05-01T08:56:16.468Z,18.58
2023-05-01T08:57:16.504Z,18.54
2023-05-01T08:58:16.535Z,18.56
2023-05-01T08:59:16.571Z,18.46
2023-05-01T09:00:16.631Z,18.46
2023-05-01T09:01:16.755Z,18.57
2023-05-01T09:02:16.668Z,18.57
2023-05-01T09:03:16.830Z,18.60
2023-05-01T09:04:16.834Z,18.53
2023-05-01T09:05:16.780Z,18.44
2023-05-01T09:06:16.846Z,18.38
2023-05-01T09:07:16.818Z,18.46
2023-05-01T09:08:16.823Z,18.56
2023-05-01T09:09:16.844Z,18.63
2023-05-01T09:10:16.858Z,18.81
2023-05-01T09:11:16.900Z,18.87
2023-05-01T09:12:16.951Z,19.03
2023-05-01T09:13:16.937Z,19.16
2023-05-01T09:14:16.949Z,19.28
2023-05-01T09:15:17.023Z,19.35
2023-05-01T09:16:17.097Z,19.40
2023-05-01T09:17:17.092Z,19.40
2023-05-01T09:18:17.198Z,19.36
2023-05-01T09:19:17.157Z,19.28
2023-05-01T09:20:17.227Z,19.26
2023-05-01T09:21:17.230Z,19.36
2023-05-01T09:22:17.287Z,19.47
2023-05-01T09:23:17.301Z,19.36
2023-05-01T09:24:17.333Z,19.45
2023-05-01T09:25:17.296Z,19.56
2023-05-01T09:26:17.352Z,19.65
2023-05-01T09:27:17.390Z,19.72
2023-05-01T09:28:17.434Z,19.92
2023-05-01T09:29:17.459Z,20.11
2023-05-01T09:30:17.499Z,20.21
2023-05-01T09:31:17.532Z,20.35
2023-05-01T09:32:17.646Z,20.43
2023-05-01T09:33:17.657Z,20.60
2023-05-01T09:34:17.624Z,20.70
2023-05-01T09:35:17.687Z,20.78
2023-05-01T09:36:17.734Z,20.93
2023-05-01T09:37:17.789Z,20.99
2023-05-01T09:38:17.791Z,20.86
2023-05-01T09:39:17.843Z,20.69
2023-05-01T09:40:17.881Z,20.81
2023-05-01T09:41:17.909Z,20.80
2023-05-01T09:42:17.961Z,20.98
2023-05-01T09:43:17.955Z,21.10
2023-05-01T09:44:18.029Z,21.22
2023-05-01T09:45:18.037Z,21.27
2023-05-01T09:46:18.186Z,21.49
2023-05-01T09:47:18.152Z,21.55
2023-05-01T09:48:18.164Z,21.60
2023-05-01T09:49:18.205Z,21.70
2023-05-01T09:50:18.282Z,21.85
2023-05-01T09:51:18.287Z,22.05
2023-05-01T09:52:18.377Z,22.11
2023-05-01T09:53:18.316Z,22.01
2023-05-01T09:54:18.364Z,22.08
2023-05-01T09:55:18.344Z,22.09
2023-05-01T09:56:18.433Z,21.97
2023-05-01T09:57:18.456Z,21.85
2023-05-01T09:58:18.477Z,21.84
2023-05-01T09:59:18.478Z,21.85
2023-05-01T10:00:18.571Z,21.82
2023-05-01T10:01:18.583Z,21.88
2023-05-01T10:02:18.714Z,22.00
2023-05-01T10:03:18.739Z,22.21
2023-05-01T10:04:18.677Z,22.36
2023-05-01T10:05:18.711Z,21.94
2023-05-01T10:06:18.733Z,22.05
2023-05-01T10:07:18.723Z,22.20
2023-05-01T10:08:18.734Z,22.29
2023-05-01T10:09:18.783Z,22.40
2023-05-01T10:10:18.935Z,22.36
2023-05-01T10:11:18.822Z,22.37
2023-05-01T10:12:18.836Z,22.45
2023-05-01T10:13:18.857Z,22.55
2023-05-01T10:14:18.879Z,22.63
2023-05-01T10:15:25.516Z,22.59
2023-05-01T10:16:19.932Z,22.61
2023-05-01T10:17:19.340Z,22.61
2023-05-01T10:18:18.892Z,22.47
2023-05-01T10:19:18.875Z,22.47
2023-05-01T10:20:18.849Z,22.48
2023-05-01T10:21:18.843Z,22.15
2023-05-01T10:22:18.841Z,21.71
2023-05-01T10:23:18.853Z,21.51
2023-05-01T10:24:18.957Z,21.25
2023-05-01T10:25:18.846Z,21.02
2023-05-01T10:26:18.811Z,21.03
2023-05-01T10:27:18.856Z,21.20
2023-05-01T10:28:18.781Z,21.15
2023-05-01T10:29:18.818Z,21.00
2023-05-01T10:30:18.814Z,21.21
2023-05-01T10:31:18.918Z,21.47
2023-05-01T10:32:18.917Z,21.64
2023-05-01T10:33:18.974Z,21.84
2023-05-01T10:34:18.958Z,21.74
2023-05-01T10:35:18.979Z,21.73
2023-05-01T10:36:19.040Z,21.70
2023-05-01T10:37:19.026Z,21.58
2023-05-01T10:38:19.065Z,21.85
2023-05-01T10:39:19.104Z,22.09
2023-05-01T10:40:19.230Z,22.25
2023-05-01T10:41:19.164Z,22.44
2023-05-01T10:42:19.232Z,22.68
2023-05-01T10:43:19.268Z,22.86
2023-05-01T10:44:19.292Z,22.92
2023-05-01T10:45:19.345Z,23.02
2023-05-01T10:46:19.381Z,23.08
2023-05-01T10:47:19.398Z,23.23
2023-05-01T10:48:19.360Z,23.43
2023-05-01T10:49:19.404Z,23.47
2023-05-01T10:50:19.455Z,23.55
2023-05-01T10:51:19.521Z,23.37
2023-05-01T10:52:19.529Z,23.20
2023-05-01T10:53:19.563Z,23.26
2023-05-01T10:54:19.571Z,23.16
2023-05-01T10:55:19.665Z,23.09
2023-05-01T10:56:19.655Z,22.48
2023-05-01T10:57:19.709Z,22.51
2023-05-01T10:58:19.703Z,22.19
2023-05-01T10:59:19.706Z,22.49
2023-05-01T11:00:19.753Z,22.78
2023-05-01T11:01:19.861Z,22.88
2023-05-01T11:02:19.849Z,22.67
2023-05-01T11:03:19.890Z,22.30
2023-05-01T11:04:19.943Z,22.01
2023-05-01T11:05:26.231Z,22.23
2023-05-01T11:06:21.067Z,22.53
2023-05-01T11:07:19.956Z,22.85
2023-05-01T11:08:19.940Z,23.04
2023-05-01T11:09:19.951Z,23.24
2023-05-01T11:10:19.926Z,23.45
2023-05-01T11:11:19.940Z,23.67
2023-05-01T11:12:19.880Z,23.88
2023-05-01T11:13:19.897Z,24.06
2023-05-01T11:14:19.904Z,24.19
2023-05-01T11:15:19.888Z,24.04
2023-05-01T11:16:20.031Z,24.10
2023-05-01T11:17:19.862Z,24.19
2023-05-01T11:18:19.883Z,24.26
2023-05-01T11:19:19.879Z,24.39
2023-05-01T11:20:19.830Z,24.14
2023-05-01T11:21:19.863Z,24.11
2023-05-01T11:22:19.827Z,24.26
2023-05-01T11:23:19.873Z,24.27
2023-05-01T11:24:19.947Z,24.55
2023-05-01T11:25:19.980Z,24.78
2023-05-01T11:26:20.019Z,24.74
2023-05-01T11:27:20.062Z,24.57
2023-05-01T11:28:20.073Z,24.53
2023-05-01T11:29:20.115Z,24.67
2023-05-01T11:30:20.161Z,24.85
2023-05-01T11:31:20.380Z,25.08
2023-05-01T11:32:20.432Z,25.26
2023-05-01T11:33:20.347Z,25.34
2023-05-01T11:34:20.271Z,25.38
2023-05-01T11:35:20.328Z,25.41
2023-05-01T11:36:20.397Z,25.05
2023-05-01T11:37:20.383Z,24.38
2023-05-01T11:38:20.454Z,24.41
2023-05-01T11:39:20.556Z,24.53
2023-05-01T11:40:20.523Z,24.56
2023-05-01T11:41:20.523Z,24.34
2023-05-01T11:42:20.596Z,23.79
2023-05-01T11:43:20.588Z,23.39
2023-05-01T11:44:20.615Z,23.56
2023-05-01T11:45:20.623Z,23.80
2023-05-01T11:46:20.630Z,23.98
2023-05-01T11:47:20.716Z,23.89
2023-05-01T11:48:20.722Z,24.11
2023-05-01T11:49:20.756Z,24.18
2023-05-01T11:50:20.748Z,24.16
2023-05-01T11:51:21.344Z,24.16
2023-05-01T11:52:20.793Z,23.74
2023-05-01T11:53:20.858Z,23.85
2023-05-01T11:54:20.854Z,24.02
2023-05-01T11:55:20.917Z,23.84
2023-05-01T11:56:26.428Z,23.92
2023-05-01T11:57:21.937Z,23.83
2023-05-01T11:58:20.892Z,24.06
2023-05-01T11:59:20.920Z,24.17
2023-05-01T12:00:20.929Z,24.35
2023-05-01T12:01:20.906Z,24.41
2023-05-01T12:02:21.044Z,24.21
2023-05-01T12:03:21.152Z,24.04
2023-05-01T12:04:21.011Z,23.97
2023-05-01T12:05:20.886Z,23.98
2023-05-01T12:06:20.932Z,23.89
2023-05-01T12:07:20.904Z,23.97
2023-05-01T12:08:20.899Z,24.07
2023-05-01T12:09:20.880Z,24.21
2023-05-01T12:10:20.844Z,24.28
2023-05-01T12:11:20.818Z,24.32
2023-05-01T12:12:20.835Z,24.37
2023-05-01T12:13:20.870Z,24.40
2023-05-01T12:14:20.841Z,24.39
2023-05-01T12:15:20.812Z,24.39
2023-05-01T12:16:20.846Z,24.50
2023-05-01T12:17:20.802Z,24.59
2023-05-01T12:18:20.971Z,24.39
2023-05-01T12:19:21.842Z,24.55
2023-05-01T12:20:20.813Z,24.61
2023-05-01T12:21:20.775Z,24.59
2023-05-01T12:22:20.764Z,24.73
2023-05-01T12:23:20.769Z,24.85
2023-05-01T12:24:20.759Z,24.74
2023-05-01T12:25:20.735Z,24.58
2023-05-01T12:26:20.765Z,24.16
2023-05-01T12:27:20.750Z,24.30
2023-05-01T12:28:20.740Z,24.40
2023-05-01T12:29:20.701Z,24.29
2023-05-01T12:30:20.736Z,24.18
2023-05-01T12:31:20.750Z,24.18
2023-05-01T12:32:20.684Z,24.22
2023-05-01T12:33:20.779Z,24.26
2023-05-01T12:34:20.684Z,24.32
2023-05-01T12:35:20.671Z,24.48
2023-05-01T12:36:20.777Z,24.65
2023-05-01T12:37:20.792Z,24.79
2023-05-01T12:38:20.790Z,24.77
2023-05-01T12:39:20.842Z,24.75
2023-05-01T12:40:20.836Z,24.72
2023-05-01T12:41:20.915Z,24.74
2023-05-01T12:42:20.910Z,24.69
2023-05-01T12:43:20.937Z,24.69
2023-05-01T12:44:20.931Z,24.54
2023-05-01T12:45:20.977Z,24.53
2023-05-01T12:46:21.016Z,24.13
2023-05-01T12:47:20.999Z,24.19
2023-05-01T12:48:21.056Z,24.20
2023-05-01T12:49:21.099Z,24.23
2023-05-01T12:50:21.132Z,23.96
2023-05-01T12:51:21.134Z,23.88
2023-05-01T12:52:21.190Z,23.74
2023-05-01T12:53:21.186Z,23.67